Time;durP1;ratioP1;P1;durP2;ratioP2;P2;SDS_P1;SDS_P2;PMS_P1;PMS_P2;Temp;Humidity;BMP_temperature;BMP_pressure;BME280_temperature;BME280_humidity;BME280_pressure;Samples;Min_cycle;Max_cycle;Signal;HPM_P1;HPM_P2
2022/12/21 00:01:20;;;;;;;2.53;1.58;;;20.80;37.70;;;;;;5095224;28;20105;-9
2022/12/21 00:03:46;;;;;;;2.03;1.80;;;20.80;37.70;;;;;;5095209;28;20382;-9
2022/12/21 00:06:13;;;;;;;3.42;1.70;;;20.80;37.80;;;;;;5094742;28;20074;-9
2022/12/21 00:08:45;;;;;;;2.70;1.90;;;20.80;38.30;;;;;;5094831;28;20052;-9
2022/12/21 00:11:12;;;;;;;2.25;1.60;;;20.80;37.80;;;;;;5094691;28;20052;-9
2022/12/21 00:13:40;;;;;;;2.50;1.67;;;20.80;37.80;;;;;;5094712;28;20056;-9
2022/12/21 00:16:09;;;;;;;4.80;1.98;;;20.80;37.80;;;;;;5094269;28;20477;-10
2022/12/21 00:18:37;;;;;;;2.60;1.95;;;20.80;37.80;;;;;;5094912;28;20056;-9
2022/12/21 00:21:06;;;;;;;2.00;1.60;;;20.80;37.80;;;;;;5094392;28;20055;-9
2022/12/21 00:23:32;;;;;;;1.92;1.67;;;20.80;37.80;;;;;;5094440;28;20059;-9
2022/12/21 00:25:59;;;;;;;2.00;1.60;;;20.80;37.70;;;;;;5094368;28;20114;-9
2022/12/21 00:28:26;;;;;;;1.95;1.50;;;20.80;37.80;;;;;;5094752;28;20055;-9
2022/12/21 00:30:51;;;;;;;2.97;1.67;;;20.80;37.80;;;;;;5094309;28;20052;-9
2022/12/21 00:33:17;;;;;;;1.65;1.40;;;20.80;37.80;;;;;;5094909;28;20059;-9
2022/12/21 00:35:50;;;;;;;3.28;1.60;;;20.80;37.80;;;;;;5091995;28;20043;-9
2022/12/21 00:38:17;;;;;;;1.60;1.50;;;20.80;37.80;;;;;;5076396;28;20052;-9
2022/12/21 00:40:44;;;;;;;1.90;1.60;;;20.80;37.70;;;;;;5092518;28;20052;-9
2022/12/21 00:43:09;;;;;;;2.45;1.70;;;20.80;37.80;;;;;;5094201;28;20063;-9
2022/12/21 00:45:35;;;;;;;2.70;1.80;;;20.80;38.40;;;;;;5074363;28;20425;-9
2022/12/21 00:48:01;;;;;;;2.00;1.58;;;20.80;37.80;;;;;;5094586;28;20056;-9
2022/12/21 00:50:26;;;;;;;1.65;1.50;;;20.80;37.80;;;;;;5074811;28;20059;-9
2022/12/21 00:52:52;;;;;;;2.08;1.60;;;20.80;37.80;;;;;;5074414;28;20059;-9
2022/12/21 00:55:18;;;;;;;2.70;1.67;;;20.80;37.80;;;;;;5092891;28;20427;-9
2022/12/21 00:57:43;;;;;;;1.63;1.40;;;20.80;38.40;;;;;;5093998;28;20548;-9
2022/12/21 01:00:10;;;;;;;1.73;1.45;;;20.80;37.80;;;;;;5094170;28;20082;-9
2022/12/21 01:02:36;;;;;;;2.00;1.70;;;20.80;37.80;;;;;;5093827;28;20044;-9
2022/12/21 01:05:03;;;;;;;2.45;1.60;;;20.80;37.80;;;;;;5093847;28;20058;-9
2022/12/21 01:07:28;;;;;;;3.00;1.63;;;20.80;37.80;;;;;;5075567;28;20052;-9
2022/12/21 01:09:54;;;;;;;1.70;1.60;;;20.80;37.80;;;;;;5093792;28;20054;-9
2022/12/21 01:12:20;;;;;;;2.10;1.88;;;20.80;37.80;;;;;;5093699;28;20131;-9
2022/12/21 01:14:45;;;;;;;2.25;1.50;;;20.80;37.80;;;;;;5074967;28;20147;-9
2022/12/21 01:17:11;;;;;;;4.40;2.00;;;20.80;37.80;;;;;;5093505;28;20079;-9
2022/12/21 01:19:37;;;;;;;2.47;1.70;;;20.80;37.70;;;;;;5093410;28;20063;-9
2022/12/21 01:22:03;;;;;;;1.65;1.50;;;20.90;37.80;;;;;;5092197;28;20056;-9
2022/12/21 01:24:28;;;;;;;2.90;1.67;;;20.80;37.70;;;;;;5093465;28;20497;-9
2022/12/21 01:26:54;;;;;;;2.30;1.77;;;20.80;37.80;;;;;;5092398;28;20440;-9
2022/12/21 01:29:20;;;;;;;1.58;1.48;;;20.80;37.80;;;;;;5093466;28;20545;-9
2022/12/21 01:31:46;;;;;;;1.73;1.50;;;20.80;37.80;;;;;;5091987;28;20052;-9
2022/12/21 01:34:12;;;;;;;1.77;1.65;;;20.80;37.80;;;;;;5075769;28;20059;-9
2022/12/21 01:36:37;;;;;;;1.92;1.73;;;20.80;37.90;;;;;;5093481;28;20389;-9
2022/12/21 01:39:03;;;;;;;1.80;1.63;;;20.80;37.90;;;;;;5075051;28;20060;-9
2022/12/21 01:41:29;;;;;;;1.85;1.60;;;20.80;37.80;;;;;;5093289;28;20089;-9
2022/12/21 01:44:02;;;;;;;2.55;1.70;;;20.80;37.80;;;;;;5093313;28;20082;-9
2022/12/21 01:46:42;;;;;;;1.30;1.20;;;20.80;37.80;;;;;;5075388;28;20055;-9
2022/12/21 01:49:20;;;;;;;1.83;1.58;;;20.80;37.80;;;;;;5093263;28;20040;-9
2022/12/21 01:51:50;;;;;;;1.63;1.52;;;20.90;37.80;;;;;;5093162;28;20056;-9
2022/12/21 01:54:40;;;;;;;2.17;1.67;;;20.90;37.80;;;;;;5093173;28;20143;-9
2022/12/21 01:57:10;;;;;;;2.28;1.95;;;20.80;37.70;;;;;;5092754;28;20056;-10
2022/12/21 01:59:45;;;;;;;2.47;1.77;;;20.90;37.80;;;;;;5091603;28;20060;-9
2022/12/21 02:02:24;;;;;;;1.70;1.40;;;20.90;37.80;;;;;;5091604;28;20052;-9
2022/12/21 02:04:52;;;;;;;3.33;1.70;;;20.90;37.80;;;;;;5092942;28;20078;-9
2022/12/21 02:07:21;;;;;;;2.13;1.63;;;20.90;37.80;;;;;;5092632;28;20110;-9
2022/12/21 02:09:47;;;;;;;1.88;1.50;;;20.90;37.80;;;;;;5092910;28;20135;-9
2022/12/21 02:12:16;;;;;;;1.85;1.25;;;20.90;37.80;;;;;;5093209;28;20044;-9
2022/12/21 02:14:45;;;;;;;1.67;1.45;;;20.80;37.80;;;;;;5075165;28;20047;-9
2022/12/21 02:17:23;;;;;;;1.63;1.52;;;20.90;37.90;;;;;;5092669;28;20462;-9
2022/12/21 02:20:21;;;;;;;1.45;1.30;;;20.90;37.80;;;;;;5091365;28;20048;-9
2022/12/21 02:23:15;;;;;;;2.03;1.48;;;20.90;38.30;;;;;;5040821;28;20147;-9
2022/12/21 02:26:13;;;;;;;2.03;1.33;;;20.90;37.80;;;;;;5092938;28;20044;-9
2022/12/21 02:29:04;;;;;;;2.00;1.50;;;20.90;37.80;;;;;;5074085;28;20147;-9
2022/12/21 02:31:54;;;;;;;2.03;1.40;;;20.90;37.80;;;;;;5092684;28;20048;-9
2022/12/21 02:34:52;;;;;;;2.00;1.65;;;20.90;37.80;;;;;;5091576;28;20058;-9
2022/12/21 02:37:43;;;;;;;2.88;1.67;;;20.90;37.80;;;;;;5061671;28;20076;-9
2022/12/21 02:40:31;;;;;;;2.65;1.40;;;20.90;37.80;;;;;;5092380;28;20041;-9
2022/12/21 02:46:19;;;;;;;1.67;1.48;;;20.90;37.80;;;;;;5092408;28;20498;-9
2022/12/21 02:49:01;;;;;;;2.25;1.63;;;20.90;37.90;;;;;;5092426;28;20044;-9
2022/12/21 02:51:48;;;;;;;1.80;1.20;;;20.80;37.80;;;;;;5092866;28;20134;-9
2022/12/21 02:54:15;;;;;;;1.77;1.67;;;20.90;37.90;;;;;;5091260;28;20101;-9
2022/12/21 02:56:41;;;;;;;1.50;1.40;;;20.90;37.90;;;;;;5092431;28;20071;-9
2022/12/21 02:59:11;;;;;;;1.60;1.50;;;20.90;37.90;;;;;;5091559;28;20051;-9
2022/12/21 03:01:49;;;;;;;1.92;1.60;;;20.90;37.90;;;;;;5077581;28;20062;-9
2022/12/21 03:04:30;;;;;;;2.38;1.60;;;20.90;37.90;;;;;;5096123;28;20052;-9
2022/12/21 03:07:11;;;;;;;;;;;20.90;37.80;;;;;;5094844;28;20052;-9
2022/12/21 03:09:47;;;;;;;1.23;1.10;;;20.90;37.80;;;;;;5094219;28;20010;-9
2022/12/21 03:12:19;;;;;;;1.90;1.60;;;20.90;37.80;;;;;;5094522;28;20394;-9
2022/12/21 03:14:54;;;;;;;2.28;1.75;;;20.90;37.90;;;;;;5095767;28;20075;-10
2022/12/21 03:17:19;;;;;;;1.50;1.30;;;20.90;37.90;;;;;;5094075;28;20528;-9
2022/12/21 03:20:01;;;;;;;1.30;1.20;;;20.80;37.90;;;;;;5094025;28;20379;-9
2022/12/21 03:22:42;;;;;;;1.58;1.38;;;20.80;37.80;;;;;;5094431;28;20071;-9
2022/12/21 03:25:16;;;;;;;1.50;1.40;;;20.80;37.90;;;;;;5095611;28;20048;-9
2022/12/21 03:27:46;;;;;;;1.70;1.23;;;20.80;37.90;;;;;;5095128;28;20400;-10
2022/12/21 03:30:16;;;;;;;1.77;1.48;;;20.80;37.90;;;;;;5095340;28;20096;-9
2022/12/21 03:32:45;;;;;;;1.63;1.48;;;20.80;37.80;;;;;;5095399;28;20051;-9
2022/12/21 03:35:39;;;;;;;1.70;1.50;;;20.90;38.40;;;;;;5095311;28;20052;-9
2022/12/21 03:38:10;;;;;;;2.65;1.30;;;20.80;37.90;;;;;;5092325;28;20081;-9
2022/12/21 03:40:40;;;;;;;2.15;1.60;;;20.80;37.80;;;;;;5094966;28;20055;-9
2022/12/21 03:43:30;;;;;;;1.65;1.42;;;20.90;37.90;;;;;;5093831;28;20052;-9
2022/12/21 03:46:03;;;;;;;1.77;1.57;;;20.80;37.80;;;;;;5094835;28;20079;-9
2022/12/21 03:48:43;;;;;;;1.80;1.60;;;20.80;37.80;;;;;;5094722;28;20056;-9
2022/12/21 03:51:25;;;;;;;2.20;1.40;;;20.90;37.90;;;;;;5095051;28;20060;-9
2022/12/21 03:54:07;;;;;;;2.00;1.63;;;20.90;37.90;;;;;;5095362;28;20047;-9
2022/12/21 03:56:37;;;;;;;2.28;1.45;;;20.90;37.90;;;;;;5094791;28;20059;-9
2022/12/21 03:59:05;;;;;;;1.35;1.00;;;20.90;37.90;;;;;;5094893;28;20051;-9
2022/12/21 04:02:09;;;;;;;1.38;1.25;;;20.90;37.90;;;;;;5095214;28;20044;-9
2022/12/21 04:04:46;;;;;;;2.90;1.30;;;20.80;37.80;;;;;;5095078;28;20052;-9
2022/12/21 04:07:15;;;;;;;1.42;1.33;;;20.80;37.90;;;;;;5094909;28;20417;-9
2022/12/21 04:09:41;;;;;;;2.78;1.65;;;20.80;37.90;;;;;;5094798;28;20489;-9
2022/12/21 04:14:52;;;;;;;1.60;1.50;;;20.80;37.90;;;;;;5094622;28;20140;-9
2022/12/21 04:17:18;;;;;;;1.50;1.40;;;20.80;37.90;;;;;;5094284;28;20383;-9
2022/12/21 04:19:59;;;;;;;1.50;1.40;;;20.80;38.00;;;;;;5094432;28;20060;-9
2022/12/21 04:28:07;;;;;;;1.70;1.60;;;20.80;37.90;;;;;;5094377;28;20047;-9
2022/12/21 04:30:43;;;;;;;1.60;1.27;;;20.80;37.90;;;;;;5094151;28;20052;-9
2022/12/21 04:33:12;;;;;;;1.40;1.30;;;20.80;37.90;;;;;;5094429;28;20059;-9
2022/12/21 04:37:30;;;;;;;1.38;1.27;;;20.80;37.90;;;;;;5094008;28;20546;-9
2022/12/21 04:38:25;;;;;;;1.50;1.40;;;20.80;37.90;;;;;;5093519;28;20134;-9
2022/12/21 04:40:53;;;;;;;1.40;1.30;;;20.80;38.00;;;;;;5093954;28;20052;-9
2022/12/21 04:43:19;;;;;;;1.50;1.40;;;20.80;37.90;;;;;;5093936;28;20106;-9
2022/12/21 04:45:45;;;;;;;1.60;1.50;;;20.80;37.90;;;;;;5093795;28;20044;-9
2022/12/21 04:48:10;;;;;;;1.45;1.35;;;20.80;37.90;;;;;;5094218;28;20129;-9
2022/12/21 04:50:38;;;;;;;1.42;1.27;;;20.80;37.90;;;;;;5094137;28;20062;-9
2022/12/21 04:53:04;;;;;;;1.70;1.30;;;20.90;37.90;;;;;;5075950;28;20067;-9
2022/12/21 04:55:29;;;;;;;1.38;1.27;;;20.80;37.90;;;;;;5094012;28;20056;-9
2022/12/21 04:57:55;;;;;;;1.85;1.60;;;20.80;37.90;;;;;;5094251;28;20125;-10
2022/12/21 05:00:21;;;;;;;1.70;1.30;;;20.90;37.90;;;;;;5093972;28;20090;-9
2022/12/21 05:02:46;;;;;;;1.48;1.17;;;20.90;37.90;;;;;;5093930;28;20098;-9
2022/12/21 05:05:12;;;;;;;1.42;1.33;;;20.90;37.90;;;;;;5093647;28;20052;-9
2022/12/21 05:07:38;;;;;;;1.15;1.05;;;20.90;37.90;;;;;;5075846;28;20047;-9
2022/12/21 05:10:04;;;;;;;1.45;1.30;;;20.90;37.90;;;;;;5093811;28;20097;-9
2022/12/21 05:12:29;;;;;;;1.25;1.15;;;20.90;37.90;;;;;;5075880;28;20048;-9
2022/12/21 05:14:55;;;;;;;1.35;1.25;;;20.90;37.90;;;;;;5093606;28;20060;-10
2022/12/21 05:17:21;;;;;;;1.50;1.38;;;20.90;37.90;;;;;;5093997;28;20055;-9
2022/12/21 05:19:46;;;;;;;1.33;1.17;;;20.90;37.90;;;;;;5093471;28;20374;-9
2022/12/21 05:22:20;;;;;;;1.55;1.30;;;20.90;37.90;;;;;;5093235;28;20055;-9
2022/12/21 05:24:46;;;;;;;1.30;1.20;;;20.90;37.90;;;;;;5093524;28;20382;-9
2022/12/21 05:27:12;;;;;;;1.52;1.30;;;20.90;37.90;;;;;;5093434;28;20051;-9
2022/12/21 05:29:38;;;;;;;2.25;1.30;;;20.90;37.90;;;;;;5093532;28;20455;-9
2022/12/21 05:32:05;;;;;;;1.10;1.00;;;20.90;37.90;;;;;;5093215;28;20410;-9
2022/12/21 05:34:31;;;;;;;2.17;1.17;;;20.90;37.90;;;;;;5093307;28;20513;-9
2022/12/21 05:36:56;;;;;;;1.30;1.20;;;20.90;37.80;;;;;;5093596;28;20086;-9
2022/12/21 05:39:22;;;;;;;1.88;1.20;;;20.90;37.80;;;;;;5093407;28;20048;-9
2022/12/21 05:41:47;;;;;;;1.20;1.10;;;20.90;37.90;;;;;;5093223;28;20044;-9
2022/12/21 05:44:13;;;;;;;1.50;1.40;;;20.90;37.80;;;;;;5093192;28;20048;-9
2022/12/21 05:46:39;;;;;;;1.92;1.50;;;20.90;37.80;;;;;;5093270;28;20458;-9
2022/12/21 05:49:04;;;;;;;1.20;1.10;;;20.90;37.80;;;;;;5093209;28;20056;-9
2022/12/21 05:51:30;;;;;;;1.33;1.23;;;20.90;37.80;;;;;;5092948;28;20409;-9
2022/12/21 05:53:56;;;;;;;0.90;0.90;;;20.90;37.80;;;;;;5093084;28;20462;-9
2022/12/21 05:56:22;;;;;;;0.90;0.90;;;20.90;37.80;;;;;;5093492;28;20047;-9
2022/12/21 05:58:47;;;;;;;1.40;1.30;;;20.90;37.80;;;;;;5093092;28;20060;-9
2022/12/21 06:01:13;;;;;;;1.20;1.10;;;20.90;37.90;;;;;;5092907;28;20413;-9
2022/12/21 06:03:41;;;;;;;1.40;1.30;;;20.90;37.80;;;;;;5093073;28;20097;-9
2022/12/21 06:06:14;;;;;;;1.52;1.20;;;20.90;37.80;;;;;;5093009;28;20398;-9
2022/12/21 06:08:41;;;;;;;2.53;1.52;;;20.90;37.80;;;;;;5093205;28;20063;-9
2022/12/21 06:11:10;;;;;;;1.58;1.30;;;20.90;37.80;;;;;;5092799;28;20063;-9
2022/12/21 06:13:36;;;;;;;1.20;1.10;;;20.90;37.80;;;;;;5092694;28;20101;-9
2022/12/21 06:16:16;;;;;;;1.58;1.40;;;20.90;37.80;;;;;;5074489;28;20076;-9
2022/12/21 06:18:43;;;;;;;1.75;1.23;;;20.90;37.90;;;;;;5074935;28;20075;-9
2022/12/21 06:21:13;;;;;;;1.38;1.20;;;20.90;37.90;;;;;;5074352;28;20523;-9
2022/12/21 06:23:41;;;;;;;2.05;1.65;;;20.90;37.80;;;;;;5092503;28;20452;-9
2022/12/21 06:26:12;;;;;;;2.05;1.70;;;20.80;38.60;;;;;;5092686;28;20078;-9
2022/12/21 06:28:39;;;;;;;1.67;1.30;;;20.80;38.90;;;;;;5092577;28;20440;-9
2022/12/21 06:31:07;;;;;;;2.85;1.88;;;20.80;38.90;;;;;;5092398;28;20143;-9
2022/12/21 06:33:33;;;;;;;2.08;1.15;;;20.80;38.80;;;;;;5091782;28;20051;-9
2022/12/21 06:35:59;;;;;;;2.47;1.63;;;20.80;38.60;;;;;;5092159;28;20048;-9
2022/12/21 06:38:26;;;;;;;1.20;1.13;;;20.90;38.50;;;;;;5092529;28;20052;-11
2022/12/21 06:41:00;;;;;;;1.60;1.40;;;20.90;38.40;;;;;;5092134;28;20452;-11
2022/12/21 06:43:27;;;;;;;1.25;1.15;;;20.90;38.40;;;;;;5092482;28;20091;-11
2022/12/21 06:46:01;;;;;;;2.80;1.60;;;20.90;39.00;;;;;;5092042;28;20513;-11
2022/12/21 06:48:28;;;;;;;1.88;1.20;;;20.90;38.40;;;;;;5092118;28;20056;-11
2022/12/21 06:50:56;;;;;;;2.20;1.30;;;20.90;38.90;;;;;;5091966;28;20056;-11
2022/12/21 06:53:23;;;;;;;2.55;1.25;;;20.90;38.90;;;;;;5091967;28;20056;-11
2022/12/21 06:55:49;;;;;;;1.52;1.10;;;20.90;38.30;;;;;;5092097;28;20087;-11
2022/12/21 06:58:15;;;;;;;1.45;1.20;;;20.90;38.30;;;;;;5091914;28;20063;-11
2022/12/21 07:00:41;;;;;;;1.75;1.40;;;20.90;38.30;;;;;;5092069;28;20051;-11
2022/12/21 07:03:07;;;;;;;1.30;1.20;;;20.90;38.30;;;;;;5092148;28;20056;-11
2022/12/21 07:05:33;;;;;;;1.92;1.13;;;20.90;38.30;;;;;;5091995;28;20070;-11
2022/12/21 07:07:59;;;;;;;2.78;1.63;;;20.90;38.30;;;;;;5092064;28;20090;-12
2022/12/21 07:10:25;;;;;;;1.23;1.02;;;20.90;38.20;;;;;;5092242;28;20102;-11
2022/12/21 07:12:51;;;;;;;1.50;1.25;;;20.90;38.30;;;;;;5091852;28;20043;-11
2022/12/21 07:15:16;;;;;;;1.65;1.30;;;20.90;38.30;;;;;;5092006;28;20077;-11
2022/12/21 07:17:42;;;;;;;1.85;1.45;;;20.90;38.30;;;;;;5091839;28;20052;-11
2022/12/21 07:20:08;;;;;;;1.80;1.48;;;20.90;38.40;;;;;;5092025;28;20044;-11
2022/12/21 07:22:34;;;;;;;1.48;1.38;;;20.80;38.30;;;;;;5091942;28;20048;-11
2022/12/21 07:25:00;;;;;;;1.70;1.20;;;20.90;38.30;;;;;;5091877;28;20059;-11
2022/12/21 07:27:25;;;;;;;1.17;1.08;;;20.90;38.30;;;;;;5091695;28;20130;-11
2022/12/21 07:29:51;;;;;;;1.75;1.48;;;20.90;38.30;;;;;;5091725;28;20141;-11
2022/12/21 07:32:17;;;;;;;1.77;1.52;;;20.90;38.30;;;;;;5091936;28;20102;-11
2022/12/21 07:34:42;;;;;;;1.52;1.38;;;20.90;38.30;;;;;;5091768;28;20493;-11
2022/12/21 07:37:08;;;;;;;1.40;1.30;;;20.90;38.30;;;;;;5091499;28;20374;-12
2022/12/21 07:39:34;;;;;;;1.30;1.20;;;20.90;38.30;;;;;;5092011;28;20063;-11
2022/12/21 07:41:59;;;;;;;1.60;1.15;;;20.90;38.30;;;;;;5091617;28;20135;-11
2022/12/21 07:44:25;;;;;;;1.40;1.30;;;20.90;38.30;;;;;;5091616;28;20056;-11
2022/12/21 07:47:06;;;;;;;1.20;1.10;;;20.90;38.30;;;;;;5074084;28;20486;-12
2022/12/21 07:49:34;;;;;;;1.60;1.42;;;20.90;38.30;;;;;;5095338;28;20093;-11
2022/12/21 07:52:00;;;;;;;2.10;1.50;;;20.90;38.30;;;;;;5095231;28;20117;-11
2022/12/21 07:54:25;;;;;;;1.65;1.25;;;20.90;38.30;;;;;;5094830;28;20082;-11
2022/12/21 07:56:51;;;;;;;1.80;1.20;;;20.90;38.30;;;;;;5094827;28;20428;-11
2022/12/21 07:59:17;;;;;;;2.22;1.13;;;20.90;38.30;;;;;;5094826;28;20052;-11
2022/12/21 08:01:43;;;;;;;1.60;1.38;;;20.90;38.30;;;;;;5095153;28;20074;-11
2022/12/21 08:04:09;;;;;;;1.50;1.35;;;20.90;38.20;;;;;;5094218;28;20063;-11
2022/12/21 08:06:34;;;;;;;1.30;1.20;;;20.90;38.20;;;;;;5094673;28;20048;-12
2022/12/21 08:09:00;;;;;;;2.45;1.20;;;20.90;38.20;;;;;;5094765;28;20044;-11
2022/12/21 08:11:28;;;;;;;1.80;1.20;;;20.90;38.20;;;;;;5094504;28;20060;-11
2022/12/21 08:13:54;;;;;;;0.90;0.90;;;20.90;38.20;;;;;;5075465;28;20049;-11
2022/12/21 08:16:20;;;;;;;1.77;1.30;;;20.90;38.20;;;;;;5094428;28;20051;-11
2022/12/21 08:18:47;;;;;;;1.27;1.17;;;20.90;38.10;;;;;;5094442;28;20055;-12
2022/12/21 08:21:14;;;;;;;1.65;1.30;;;20.90;38.20;;;;;;5094427;28;20048;-11
2022/12/21 08:23:40;;;;;;;1.35;1.00;;;20.90;38.70;;;;;;5094407;28;20052;-11
2022/12/21 08:26:08;;;;;;;1.20;1.10;;;21.00;38.30;;;;;;5094433;28;20103;-11
2022/12/21 08:28:34;;;;;;;1.10;1.00;;;20.90;38.20;;;;;;5093969;28;20176;-12
2022/12/21 08:31:05;;;;;;;1.65;1.25;;;20.90;38.10;;;;;;5093531;28;20066;-11
2022/12/21 08:33:31;;;;;;;1.20;1.10;;;20.90;38.10;;;;;;5093193;28;20055;-11
2022/12/21 08:35:57;;;;;;;1.20;1.10;;;20.90;38.10;;;;;;5094178;28;20056;-11
2022/12/21 08:38:22;;;;;;;4.10;1.15;;;20.90;38.50;;;;;;5092049;28;20401;-12
2022/12/21 08:40:48;;;;;;;2.60;1.48;;;20.90;38.70;;;;;;5092673;28;20056;-12
2022/12/21 08:43:14;;;;;;;2.50;1.20;;;20.90;38.60;;;;;;5091646;28;20502;-12
2022/12/21 08:45:40;;;;;;;1.58;1.40;;;20.90;38.50;;;;;;5092741;28;20071;-12
2022/12/21 08:48:06;;;;;;;2.35;1.30;;;20.90;38.40;;;;;;5093062;28;20048;-11
2022/12/21 08:50:32;;;;;;;1.35;1.10;;;20.90;38.40;;;;;;5093226;28;20063;-11
2022/12/21 08:52:57;;;;;;;1.75;1.30;;;21.00;38.40;;;;;;5092223;28;20052;-12
2022/12/21 08:55:23;;;;;;;2.03;1.58;;;21.00;38.40;;;;;;5091419;28;20056;-12
2022/12/21 08:57:49;;;;;;;1.85;1.35;;;21.00;38.40;;;;;;5090984;28;20044;-13
2022/12/21 09:00:15;;;;;;;2.25;1.35;;;21.00;38.40;;;;;;5092492;28;20113;-12
2022/12/21 09:02:40;;;;;;;1.15;1.05;;;21.00;38.30;;;;;;5093075;28;20056;-11
2022/12/21 09:05:06;;;;;;;2.28;1.13;;;21.00;38.30;;;;;;5093459;28;20067;-12
2022/12/21 09:07:32;;;;;;;1.20;1.10;;;21.00;38.30;;;;;;5093550;28;20143;-11
2022/12/21 09:09:58;;;;;;;1.63;1.10;;;21.00;38.30;;;;;;5093633;28;20058;-11
2022/12/21 09:12:24;;;;;;;1.65;1.08;;;21.00;38.30;;;;;;5093097;28;20052;-11
2022/12/21 09:14:50;;;;;;;1.30;1.20;;;21.00;38.30;;;;;;5093307;28;20063;-11
2022/12/21 09:17:16;;;;;;;1.38;1.23;;;21.00;38.30;;;;;;5093277;28;20405;-11
2022/12/21 09:19:42;;;;;;;1.63;1.40;;;21.00;38.20;;;;;;5093267;28;20048;-11
2022/12/21 09:22:07;;;;;;;1.20;1.10;;;21.00;38.20;;;;;;5093246;28;20047;-11
2022/12/21 09:24:33;;;;;;;1.40;1.30;;;21.00;38.20;;;;;;5092185;28;20506;-11
2022/12/21 09:26:59;;;;;;;1.30;1.20;;;21.00;38.20;;;;;;5093742;28;20169;-11
2022/12/21 09:29:25;;;;;;;1.17;1.00;;;21.00;38.20;;;;;;5075221;28;20047;-11
2022/12/21 09:31:51;;;;;;;1.23;1.10;;;21.00;38.20;;;;;;5093169;28;20059;-11
2022/12/21 09:34:18;;;;;;;1.20;1.10;;;21.00;38.20;;;;;;5093252;28;20052;-11
2022/12/21 09:36:44;;;;;;;1.63;1.20;;;21.00;38.30;;;;;;5092631;28;20047;-12
2022/12/21 09:39:10;;;;;;;1.20;1.13;;;21.00;38.30;;;;;;5093283;28;20056;-11
2022/12/21 09:41:44;;;;;;;1.40;1.30;;;21.00;38.30;;;;;;5092999;28;20142;-11
2022/12/21 09:44:32;;;;;;;1.30;1.20;;;21.00;38.30;;;;;;5075061;28;20048;-11
2022/12/21 09:47:03;;;;;;;1.85;1.42;;;21.00;38.30;;;;;;5092932;28;20404;-12
2022/12/21 09:49:40;;;;;;;1.38;1.27;;;21.00;38.30;;;;;;5093473;28;20052;-11
2022/12/21 09:52:20;;;;;;;1.83;1.10;;;21.00;38.30;;;;;;5093150;28;20043;-11
2022/12/21 09:55:02;;;;;;;1.88;1.33;;;21.00;38.20;;;;;;5093302;28;20060;-11
2022/12/21 09:57:35;;;;;;;1.52;1.25;;;21.00;38.30;;;;;;5092806;28;20135;-11
2022/12/21 10:00:02;;;;;;;2.28;1.30;;;21.00;38.30;;;;;;5093212;28;20485;-11
2022/12/21 10:02:50;;;;;;;1.50;1.40;;;20.90;38.20;;;;;;5093192;28;20056;-11
2022/12/21 10:05:29;;;;;;;2.08;1.70;;;20.90;38.30;;;;;;5092210;28;20078;-12
2022/12/21 10:08:21;;;;;;;1.17;1.08;;;20.80;38.30;;;;;;5092214;28;20063;-11
2022/12/21 10:11:25;;;;;;;1.52;1.40;;;20.90;38.50;;;;;;5071949;28;20059;-12
2022/12/21 10:14:25;;;;;;;1.42;1.30;;;20.90;38.50;;;;;;5089680;28;20097;-11
2022/12/21 10:17:05;;;;;;;1.85;1.40;;;20.90;38.50;;;;;;5037245;28;20489;-12
2022/12/21 10:19:39;;;;;;;1.30;1.20;;;20.90;38.50;;;;;;5092477;28;20130;-12
2022/12/21 10:22:35;;;;;;;2.00;1.25;;;20.90;38.50;;;;;;5091697;28;20100;-11
2022/12/21 10:25:13;;;;;;;1.48;1.38;;;20.90;38.60;;;;;;5092567;28;21255;-12
2022/12/21 10:27:56;;;;;;;2.55;1.48;;;20.90;38.50;;;;;;5092454;28;20091;-12
2022/12/21 10:30:23;;;;;;;2.78;1.30;;;20.90;38.50;;;;;;5092261;28;20063;-12
2022/12/21 10:32:50;;;;;;;1.77;1.45;;;20.90;38.50;;;;;;5092372;28;20047;-12
2022/12/21 10:35:22;;;;;;;1.65;1.50;;;20.90;38.50;;;;;;5091556;28;20048;-14
2022/12/21 10:37:52;;;;;;;1.30;1.20;;;21.00;38.50;;;;;;5090167;28;20083;-12
2022/12/21 10:40:21;;;;;;;2.05;1.30;;;21.00;38.50;;;;;;5092215;28;20055;-12
2022/12/21 10:42:49;;;;;;;1.40;1.30;;;21.00;38.50;;;;;;5092622;28;20131;-12
2022/12/21 10:45:17;;;;;;;1.73;1.52;;;21.00;38.40;;;;;;5092504;28;20159;-12
2022/12/21 10:47:44;;;;;;;2.33;1.27;;;21.00;38.40;;;;;;5092300;28;20082;-12
2022/12/21 10:50:27;;;;;;;1.65;1.30;;;20.90;38.40;;;;;;5092337;28;20512;-12
2022/12/21 10:52:57;;;;;;;2.00;1.50;;;21.00;38.50;;;;;;5090328;28;20055;-13
2022/12/21 10:55:25;;;;;;;1.25;1.15;;;20.90;38.50;;;;;;5090249;28;20055;-13
2022/12/21 10:58:12;;;;;;;1.40;1.23;;;20.90;38.50;;;;;;5090846;28;20055;-13
2022/12/21 11:00:40;;;;;;;3.42;1.55;;;20.90;38.50;;;;;;5091949;28;20059;-12
2022/12/21 11:03:23;;;;;;;1.75;1.40;;;21.00;38.50;;;;;;5092120;28;20079;-12
2022/12/21 11:05:49;;;;;;;1.55;1.40;;;20.90;38.40;;;;;;5092383;28;20126;-12
2022/12/21 11:08:14;;;;;;;1.60;1.50;;;20.90;38.50;;;;;;5092056;28;20141;-12
2022/12/21 11:10:40;;;;;;;1.50;1.40;;;20.90;38.50;;;;;;5092272;28;20489;-12
2022/12/21 11:13:06;;;;;;;1.35;1.25;;;20.90;38.50;;;;;;5091760;28;20406;-12
2022/12/21 11:15:33;;;;;;;1.33;1.23;;;20.90;38.40;;;;;;5090776;28;20051;-12
2022/12/21 11:18:00;;;;;;;1.92;1.40;;;20.90;38.50;;;;;;5089828;28;20485;-13
2022/12/21 11:20:27;;;;;;;1.75;1.17;;;20.90;38.50;;;;;;5090950;28;20177;-13
2022/12/21 11:22:55;;;;;;;1.80;1.33;;;20.90;38.40;;;;;;5074591;28;20481;-13
2022/12/21 11:25:25;;;;;;;1.67;1.45;;;20.90;38.50;;;;;;5093425;28;20048;-13
2022/12/21 11:27:56;;;;;;;1.23;1.13;;;20.90;38.40;;;;;;5094056;28;20076;-12
2022/12/21 11:30:24;;;;;;;;;;;20.90;38.40;;;;;;5094779;28;20082;-12
2022/12/21 11:32:52;;;;;;;1.20;1.10;;;21.00;38.40;;;;;;5095049;28;20393;-12
2022/12/21 11:35:26;;;;;;;1.38;1.02;;;21.00;38.40;;;;;;5095616;28;20047;-12
2022/12/21 11:37:53;;;;;;;1.33;1.23;;;21.00;38.40;;;;;;5095128;28;20052;-12
2022/12/21 11:40:26;;;;;;;1.85;1.45;;;21.00;38.50;;;;;;5095204;28;20048;-12
2022/12/21 11:42:51;;;;;;;1.42;1.33;;;21.00;38.40;;;;;;5095000;28;20044;-12
2022/12/21 11:45:25;;;;;;;1.20;1.10;;;21.00;38.40;;;;;;5093990;28;20386;-12
2022/12/21 11:47:59;;;;;;;2.30;1.42;;;21.00;38.40;;;;;;5095373;28;20059;-12
2022/12/21 11:51:08;;;;;;;2.08;1.38;;;21.00;38.40;;;;;;5094911;28;20189;-12
2022/12/21 11:54:00;;;;;;;1.25;1.15;;;21.00;38.40;;;;;;5094853;28;20063;-12
2022/12/21 11:56:36;;;;;;;;;;;21.00;38.40;;;;;;5095265;28;20051;-12
2022/12/21 11:59:23;;;;;;;1.40;1.25;;;21.00;38.40;;;;;;5094857;28;19958;-12
2022/12/21 12:02:29;;;;;;;1.33;1.23;;;21.00;38.40;;;;;;5094768;28;20052;-12
2022/12/21 12:05:30;;;;;;;1.60;1.33;;;21.00;38.50;;;;;;5094757;28;20055;-9
2022/12/21 12:07:59;;;;;;;1.40;1.30;;;21.00;38.40;;;;;;5094434;28;20048;-9
2022/12/21 12:10:43;;;;;;;1.40;1.20;;;21.00;38.50;;;;;;5094216;28;20048;-9
2022/12/21 12:13:20;;;;;;;1.23;1.13;;;21.00;38.50;;;;;;5094152;28;20146;-10
2022/12/21 12:16:06;;;;;;;2.63;1.80;;;21.00;38.50;;;;;;5094278;28;20051;-10
2022/12/21 12:18:57;;;;;;;1.40;1.30;;;20.90;39.00;;;;;;5094643;28;20086;-11
2022/12/21 12:21:30;;;;;;;1.50;1.40;;;20.90;38.50;;;;;;5094613;28;20074;-10
2022/12/21 12:24:18;;;;;;;1.38;1.27;;;20.90;38.50;;;;;;5094257;28;20055;-11
2022/12/21 12:26:53;;;;;;;2.72;1.25;;;20.90;38.50;;;;;;5093872;28;20048;-11
2022/12/21 12:30:00;;;;;;;1.30;1.20;;;20.90;38.50;;;;;;5092922;28;20071;-10
2022/12/21 12:32:41;;;;;;;1.48;1.30;;;20.90;38.50;;;;;;5093508;28;20062;-10
2022/12/21 12:35:18;;;;;;;1.75;1.42;;;20.90;38.50;;;;;;5094185;28;20052;-11
2022/12/21 12:38:15;;;;;;;1.75;1.42;;;21.00;38.50;;;;;;5094113;28;20074;-11
2022/12/21 12:41:08;;;;;;;1.65;1.55;;;21.00;38.50;;;;;;5074341;28;20052;-10
2022/12/21 12:43:59;;;;;;;2.13;1.65;;;20.90;39.00;;;;;;5094567;28;20190;-11
2022/12/21 12:46:31;;;;;;;1.52;1.35;;;21.00;38.50;;;;;;5093857;28;20072;-12
2022/12/21 12:49:34;;;;;;;1.30;1.20;;;21.00;38.40;;;;;;5073579;28;20124;-11
2022/12/21 12:52:02;;;;;;;1.30;1.20;;;20.90;38.40;;;;;;5092503;28;20072;-11
2022/12/21 12:54:59;;;;;;;1.95;1.45;;;21.00;38.50;;;;;;5092976;28;20056;-11
2022/12/21 12:58:04;;;;;;;1.55;1.45;;;21.00;38.50;;;;;;5093131;28;20044;-11
2022/12/21 13:00:39;;;;;;;1.65;1.38;;;21.00;38.50;;;;;;5078155;28;20075;-11
2022/12/21 13:03:25;;;;;;;1.30;1.20;;;21.00;38.40;;;;;;5093826;28;20044;-11
2022/12/21 13:06:02;;;;;;;1.38;1.27;;;21.00;38.50;;;;;;5093560;28;20215;-11
2022/12/21 13:08:46;;;;;;;1.95;1.40;;;21.00;38.50;;;;;;5094078;28;20117;-11
2022/12/21 13:11:52;;;;;;;1.30;1.20;;;21.00;38.50;;;;;;5093584;28;20440;-11
2022/12/21 13:14:28;;;;;;;1.58;1.40;;;21.00;38.50;;;;;;5089184;28;20052;-11
2022/12/21 13:17:04;;;;;;;1.65;1.40;;;21.00;38.50;;;;;;5093548;28;20056;-10
2022/12/21 13:19:31;;;;;;;1.40;1.30;;;21.00;38.40;;;;;;5093655;28;20048;-11
2022/12/21 13:22:02;;;;;;;1.40;1.30;;;21.00;38.40;;;;;;5093512;28;20060;-12
2022/12/21 13:24:40;;;;;;;1.65;1.40;;;21.00;38.40;;;;;;5092465;28;20397;-11
2022/12/21 13:27:09;;;;;;;1.45;1.30;;;21.00;38.40;;;;;;5093494;28;20052;-11
2022/12/21 13:30:05;;;;;;;1.67;1.38;;;21.00;38.40;;;;;;5093797;28;20405;-11